createdAt,value
2023-05-13T00:01:20.512Z,26.29
2023-05-13T00:03:48.991Z,26.33
2023-05-13T00:06:17.470Z,26.39
2023-05-13T00:08:46.058Z,26.45
2023-05-13T00:11:14.436Z,26.50
2023-05-13T00:13:42.844Z,26.54
2023-05-13T00:16:11.205Z,26.58
2023-05-13T00:18:39.593Z,26.60
2023-05-13T00:21:08.141Z,26.60
2023-05-13T00:23:36.445Z,26.59
2023-05-13T00:26:05.016Z,26.58
2023-05-13T00:28:33.380Z,26.58
2023-05-13T00:31:01.754Z,26.57
2023-05-13T00:33:30.180Z,26.55
2023-05-13T00:35:58.927Z,26.52
2023-05-13T00:38:27.241Z,26.47
2023-05-13T00:40:55.694Z,26.42
2023-05-13T00:43:24.038Z,26.35
2023-05-13T00:45:52.448Z,26.29
2023-05-13T00:48:20.993Z,26.27
2023-05-13T00:50:50.374Z,26.23
2023-05-13T00:53:19.516Z,26.23
2023-05-13T00:55:48.627Z,26.27
2023-05-13T00:58:18.844Z,26.29
2023-05-13T01:01:00.987Z,26.33
2023-05-13T01:03:40.601Z,26.38
2023-05-13T01:06:22.460Z,26.42
2023-05-13T01:09:21.200Z,26.47
2023-05-13T01:11:53.838Z,26.52
2023-05-13T01:14:30.784Z,26.56
2023-05-13T01:17:12.905Z,26.60
2023-05-13T01:19:48.295Z,26.64
2023-05-13T01:22:16.802Z,26.66
2023-05-13T01:24:46.706Z,26.67
2023-05-13T01:27:15.973Z,26.69
2023-05-13T01:29:45.373Z,26.71
2023-05-13T01:32:14.885Z,26.72
2023-05-13T01:34:44.246Z,26.73
2023-05-13T01:37:12.757Z,26.78
2023-05-13T01:39:42.140Z,26.82
2023-05-13T01:42:12.500Z,26.86
2023-05-13T01:44:40.879Z,26.94
2023-05-13T01:47:09.386Z,27.05
2023-05-13T01:49:37.760Z,27.15
2023-05-13T01:52:06.413Z,27.18
2023-05-13T01:54:35.346Z,27.20
2023-05-13T01:57:04.287Z,27.21
2023-05-13T01:59:33.063Z,27.22
2023-05-13T02:02:01.590Z,27.24
2023-05-13T02:04:30.095Z,27.27
2023-05-13T02:06:58.459Z,27.33
2023-05-13T02:09:26.793Z,27.37
2023-05-13T02:11:55.246Z,27.44
2023-05-13T02:14:23.577Z,27.51
2023-05-13T02:16:52.025Z,27.58
2023-05-13T02:19:20.808Z,27.61
2023-05-13T02:21:49.180Z,27.64
2023-05-13T02:24:18.393Z,27.61
2023-05-13T02:26:46.815Z,27.59
2023-05-13T02:29:15.748Z,27.60
2023-05-13T02:31:44.176Z,27.62
2023-05-13T02:34:12.595Z,27.61
2023-05-13T02:36:41.216Z,27.63
2023-05-13T02:39:09.603Z,27.67
2023-05-13T02:41:38.328Z,27.70
2023-05-13T02:44:06.721Z,27.70
2023-05-13T02:46:35.225Z,27.68
2023-05-13T02:49:03.868Z,27.66
2023-05-13T02:51:32.223Z,27.65
2023-05-13T02:54:00.615Z,27.70
2023-05-13T02:56:28.982Z,27.75
2023-05-13T02:58:57.364Z,27.81
2023-05-13T03:01:27.753Z,27.88
2023-05-13T03:03:56.448Z,27.97
2023-05-13T03:06:24.776Z,28.06
2023-05-13T03:08:53.319Z,28.16
2023-05-13T03:11:22.149Z,28.25
2023-05-13T03:13:50.747Z,28.30
2023-05-13T03:16:19.144Z,28.31
2023-05-13T03:18:47.536Z,28.30
2023-05-13T03:21:16.005Z,28.30
2023-05-13T03:23:44.341Z,28.40
2023-05-13T03:26:12.755Z,28.55
2023-05-13T03:28:41.098Z,28.69
2023-05-13T03:31:09.684Z,28.85
2023-05-13T03:33:38.218Z,29.00
2023-05-13T03:36:08.024Z,29.10
2023-05-13T03:38:36.422Z,29.23
2023-05-13T03:41:04.770Z,29.26
2023-05-13T03:43:33.462Z,29.21
2023-05-13T03:46:01.887Z,29.17
2023-05-13T03:48:30.253Z,29.11
2023-05-13T03:50:58.566Z,29.04
2023-05-13T03:53:26.965Z,28.98
2023-05-13T03:55:55.321Z,28.94
2023-05-13T03:58:23.762Z,28.91
2023-05-13T04:00:52.075Z,28.88
2023-05-13T04:03:20.714Z,28.93
2023-05-13T04:05:50.039Z,29.11
2023-05-13T04:08:18.433Z,29.26
2023-05-13T04:10:46.802Z,29.36
2023-05-13T04:13:15.600Z,29.40
2023-05-13T04:15:44.014Z,29.40
2023-05-13T04:18:12.444Z,29.41
2023-05-13T04:20:41.426Z,29.39
2023-05-13T04:23:09.831Z,29.34
2023-05-13T04:25:40.911Z,29.31
2023-05-13T04:28:09.394Z,29.28
2023-05-13T04:30:38.019Z,29.24
2023-05-13T04:33:07.268Z,29.23
2023-05-13T04:35:35.705Z,29.24
2023-05-13T04:38:04.690Z,29.33
2023-05-13T04:40:33.140Z,29.43
2023-05-13T04:43:01.846Z,29.57
2023-05-13T04:45:31.445Z,29.71
2023-05-13T04:47:59.880Z,29.86
2023-05-13T04:50:28.400Z,29.93
2023-05-13T04:52:57.536Z,29.88
2023-05-13T04:55:27.762Z,29.77
2023-05-13T04:57:56.336Z,29.65
2023-05-13T05:00:25.681Z,29.55
2023-05-13T05:02:54.199Z,29.41
2023-05-13T05:05:22.670Z,29.32
2023-05-13T05:07:51.427Z,29.20
2023-05-13T05:10:20.309Z,29.07
2023-05-13T05:12:49.940Z,28.98
2023-05-13T05:15:18.487Z,28.84
2023-05-13T05:17:47.106Z,28.73
2023-05-13T05:20:15.664Z,28.58
2023-05-13T05:22:44.128Z,28.33
2023-05-13T05:25:12.621Z,28.06
2023-05-13T05:27:41.164Z,27.76
2023-05-13T05:30:11.733Z,27.60
2023-05-13T05:32:40.183Z,27.38
2023-05-13T05:35:09.583Z,27.14
2023-05-13T05:37:38.036Z,26.94
2023-05-13T05:40:07.165Z,26.71
2023-05-13T05:42:35.668Z,26.47
2023-05-13T05:45:04.423Z,26.33
2023-05-13T05:47:32.893Z,26.16
2023-05-13T05:50:01.512Z,25.98
2023-05-13T05:52:29.890Z,25.82
2023-05-13T05:54:58.308Z,25.70
2023-05-13T05:57:26.845Z,25.58
2023-05-13T05:59:55.283Z,25.50
2023-05-13T06:02:23.756Z,25.46
2023-05-13T06:04:52.255Z,25.41
2023-05-13T06:07:20.635Z,25.36
2023-05-13T06:09:49.017Z,25.35
2023-05-13T06:12:17.390Z,25.34
2023-05-13T06:14:45.791Z,25.31
2023-05-13T06:17:15.757Z,25.30
2023-05-13T06:19:44.232Z,25.27
2023-05-13T06:22:13.212Z,25.26
2023-05-13T06:24:43.823Z,25.24
2023-05-13T06:27:15.919Z,25.25
2023-05-13T06:29:46.106Z,25.24
2023-05-13T06:32:14.482Z,25.25
2023-05-13T06:34:46.653Z,25.25
2023-05-13T06:37:15.209Z,25.25
2023-05-13T06:39:43.651Z,25.27
2023-05-13T06:42:14.168Z,25.30
2023-05-13T06:44:42.743Z,25.32
2023-05-13T06:47:16.910Z,25.33
2023-05-13T06:49:45.390Z,25.35
2023-05-13T06:52:13.744Z,25.36
2023-05-13T06:54:42.218Z,25.35
2023-05-13T06:57:10.587Z,25.37
2023-05-13T06:59:39.079Z,25.37
2023-05-13T07:02:10.638Z,25.39
2023-05-13T07:04:39.213Z,25.40
2023-05-13T07:07:07.573Z,25.42
2023-05-13T07:09:36.198Z,25.43
2023-05-13T07:12:04.777Z,25.45
2023-05-13T07:14:33.182Z,25.45
2023-05-13T07:17:01.668Z,25.48
2023-05-13T07:19:30.068Z,25.51
2023-05-13T07:21:59.348Z,25.55
2023-05-13T07:24:27.769Z,25.62
2023-05-13T07:26:56.196Z,25.67
2023-05-13T07:29:25.848Z,25.74
2023-05-13T07:31:54.893Z,25.79
2023-05-13T07:34:23.428Z,25.86
2023-05-13T07:36:51.836Z,25.92
2023-05-13T07:39:20.263Z,26.00
2023-05-13T07:41:48.652Z,26.05
2023-05-13T07:44:33.416Z,26.10
2023-05-13T07:47:15.002Z,26.16
2023-05-13T07:49:43.518Z,26.21
2023-05-13T07:52:11.928Z,26.28
2023-05-13T07:54:40.471Z,26.34
2023-05-13T07:57:09.160Z,26.41
2023-05-13T07:59:37.500Z,26.45
2023-05-13T08:02:05.989Z,26.51
2023-05-13T08:04:34.464Z,26.55
2023-05-13T08:07:03.286Z,26.59
2023-05-13T08:09:31.859Z,26.61
2023-05-13T08:12:00.211Z,26.64
2023-05-13T08:14:28.556Z,26.67
2023-05-13T08:16:57.310Z,26.67
2023-05-13T08:19:25.617Z,26.70
2023-05-13T08:21:53.997Z,26.74
2023-05-13T08:24:22.324Z,26.76
2023-05-13T08:26:50.688Z,26.78
2023-05-13T08:29:19.000Z,26.80
2023-05-13T08:31:47.542Z,26.82
2023-05-13T08:34:15.931Z,26.84
2023-05-13T08:36:44.386Z,26.87
2023-05-13T08:39:12.753Z,26.93
2023-05-13T08:41:44.734Z,26.96
2023-05-13T08:44:16.783Z,27.01
2023-05-13T08:46:52.584Z,27.07
2023-05-13T08:49:22.074Z,27.14
2023-05-13T08:51:50.540Z,27.22
2023-05-13T08:54:21.087Z,27.28
2023-05-13T08:56:51.605Z,27.33
2023-05-13T08:59:19.925Z,27.38
2023-05-13T09:01:51.660Z,27.39
2023-05-13T09:04:21.466Z,27.45
2023-05-13T09:06:50.237Z,27.48
2023-05-13T09:09:18.764Z,27.49
2023-05-13T09:11:49.738Z,27.49
2023-05-13T09:14:20.838Z,27.51
2023-05-13T09:16:49.713Z,27.53
2023-05-13T09:19:20.340Z,27.56
2023-05-13T09:21:49.145Z,27.55
2023-05-13T09:24:22.588Z,27.54
2023-05-13T09:26:53.025Z,27.53
2023-05-13T09:29:21.379Z,27.53
2023-05-13T09:31:57.387Z,27.53
2023-05-13T09:34:33.654Z,27.55
2023-05-13T09:37:09.998Z,27.56
2023-05-13T09:39:43.059Z,27.56
2023-05-13T09:42:18.771Z,27.56
2023-05-13T09:44:48.353Z,27.57
2023-05-13T09:47:17.662Z,27.59
2023-05-13T09:49:56.279Z,27.59
2023-05-13T09:52:24.736Z,27.58
2023-05-13T09:54:53.104Z,27.62
2023-05-13T09:57:22.417Z,27.62
2023-05-13T09:59:51.375Z,27.63
2023-05-13T10:02:20.218Z,27.66
2023-05-13T10:04:48.671Z,27.71
2023-05-13T10:07:17.154Z,27.75
2023-05-13T10:09:48.027Z,27.73
2023-05-13T10:12:16.644Z,27.69
2023-05-13T10:14:45.393Z,27.68
2023-05-13T10:17:14.847Z,27.61
2023-05-13T10:19:43.582Z,27.56
2023-05-13T10:22:13.333Z,27.52
2023-05-13T10:24:43.792Z,27.49
2023-05-13T10:27:13.407Z,27.48
2023-05-13T10:29:44.146Z,27.45
2023-05-13T10:32:13.962Z,27.43
2023-05-13T10:34:44.561Z,27.43
2023-05-13T10:37:35.265Z,27.42
2023-05-13T10:40:40.689Z,27.39
2023-05-13T10:43:16.435Z,27.36
2023-05-13T10:46:01.012Z,27.33
2023-05-13T10:48:41.707Z,27.29
2023-05-13T10:51:14.576Z,27.26
2023-05-13T10:53:54.621Z,27.25
2023-05-13T10:56:27.884Z,27.23
2023-05-13T10:59:01.217Z,27.21
2023-05-13T11:01:35.890Z,27.22
2023-05-13T11:04:06.654Z,27.21
2023-05-13T11:06:43.086Z,27.19
2023-05-13T11:09:15.557Z,27.19
2023-05-13T11:11:49.891Z,27.17
2023-05-13T11:14:23.188Z,27.15
2023-05-13T11:17:03.324Z,27.15
2023-05-13T11:19:33.768Z,27.12
2023-05-13T11:22:14.843Z,27.09
2023-05-13T11:24:46.356Z,27.06
2023-05-13T11:27:23.406Z,27.04
2023-05-13T11:29:53.999Z,27.01
2023-05-13T11:32:54.184Z,27.00
2023-05-13T11:35:29.746Z,26.98
2023-05-13T11:38:00.553Z,26.94
2023-05-13T11:40:37.983Z,26.91
2023-05-13T11:43:07.218Z,26.89
2023-05-13T11:45:41.105Z,26.85
2023-05-13T11:48:23.208Z,26.84
2023-05-13T11:50:55.588Z,26.81
2023-05-13T11:53:27.109Z,26.79
2023-05-13T11:55:56.654Z,26.77
2023-05-13T11:58:25.090Z,26.74
2023-05-13T12:00:56.330Z,26.71
2023-05-13T12:03:24.811Z,26.70
2023-05-13T12:06:02.860Z,26.67
2023-05-13T12:08:31.259Z,26.65
2023-05-13T12:11:01.087Z,26.62
2023-05-13T12:13:29.694Z,26.59
2023-05-13T12:15:58.279Z,26.59
2023-05-13T12:18:26.725Z,26.58
2023-05-13T12:20:55.105Z,26.56
2023-05-13T12:23:23.459Z,26.56
2023-05-13T12:25:52.269Z,26.55
2023-05-13T12:28:25.515Z,26.54
2023-05-13T12:30:57.218Z,26.53
2023-05-13T12:33:31.901Z,26.51
2023-05-13T12:36:26.458Z,26.49
2023-05-13T12:39:11.848Z,26.48
2023-05-13T12:41:51.780Z,26.48
2023-05-13T12:44:20.303Z,26.46
2023-05-13T12:46:58.118Z,26.46
2023-05-13T12:49:26.598Z,26.46
2023-05-13T12:51:56.598Z,26.46
2023-05-13T12:54:25.134Z,26.46
2023-05-13T12:56:54.490Z,26.45
2023-05-13T12:59:23.015Z,26.46
2023-05-13T13:01:52.118Z,26.46
2023-05-13T13:04:20.677Z,26.47
2023-05-13T13:06:49.165Z,26.47
2023-05-13T13:09:17.649Z,26.47
2023-05-13T13:11:46.032Z,26.46
2023-05-13T13:14:14.439Z,26.47
2023-05-13T13:16:42.906Z,26.46
2023-05-13T13:19:11.445Z,26.46
2023-05-13T13:21:39.857Z,26.44
2023-05-13T13:24:08.488Z,26.43
2023-05-13T13:26:37.010Z,26.43
2023-05-13T13:29:05.443Z,26.41
2023-05-13T13:31:33.879Z,26.41
2023-05-13T13:34:05.309Z,26.40
2023-05-13T13:36:33.835Z,26.41
2023-05-13T13:39:02.233Z,26.41
2023-05-13T13:41:30.723Z,26.42
2023-05-13T13:43:59.098Z,26.43
2023-05-13T13:46:27.818Z,26.43
2023-05-13T13:48:56.443Z,26.43
2023-05-13T13:51:24.864Z,26.44
2023-05-13T13:53:53.279Z,26.44
2023-05-13T13:56:22.169Z,26.44
2023-05-13T13:58:50.506Z,26.44
2023-05-13T14:01:20.510Z,26.44
2023-05-13T14:03:52.035Z,26.43
2023-05-13T14:06:20.928Z,26.41
2023-05-13T14:08:51.929Z,26.41
2023-05-13T14:11:20.264Z,26.41
2023-05-13T14:13:48.607Z,26.41
2023-05-13T14:16:17.041Z,26.39
2023-05-13T14:18:45.481Z,26.39
2023-05-13T14:21:13.823Z,26.37
2023-05-13T14:23:42.922Z,26.35
2023-05-13T14:26:16.507Z,26.35
2023-05-13T14:28:45.296Z,26.34
2023-05-13T14:31:13.657Z,26.35
2023-05-13T14:33:41.995Z,26.34
2023-05-13T14:36:12.098Z,26.34
2023-05-13T14:38:40.829Z,26.34
2023-05-13T14:41:09.160Z,26.33
2023-05-13T14:43:37.619Z,26.33
2023-05-13T14:46:06.067Z,26.33
2023-05-13T14:48:34.491Z,26.34
2023-05-13T14:51:02.891Z,26.33
2023-05-13T14:53:31.320Z,26.33
2023-05-13T14:55:59.804Z,26.33
2023-05-13T14:58:28.144Z,26.33
2023-05-13T15:00:56.955Z,26.32
2023-05-13T15:03:25.332Z,26.32
2023-05-13T15:05:55.331Z,26.32
2023-05-13T15:08:23.966Z,26.31
2023-05-13T15:10:52.310Z,26.32
2023-05-13T15:13:20.765Z,26.31
2023-05-13T15:15:49.267Z,26.30
2023-05-13T15:18:17.619Z,26.31
2023-05-13T15:20:46.351Z,26.31
2023-05-13T15:23:15.112Z,26.31
2023-05-13T15:25:43.560Z,26.30
2023-05-13T15:28:11.907Z,26.30
2023-05-13T15:30:40.329Z,26.30
2023-05-13T15:33:08.774Z,26.29
2023-05-13T15:35:37.400Z,26.29
2023-05-13T15:38:05.792Z,26.28
2023-05-13T15:40:34.183Z,26.28
2023-05-13T15:43:02.665Z,26.26
2023-05-13T15:45:31.586Z,26.26
2023-05-13T15:48:00.217Z,26.26
2023-05-13T15:50:28.612Z,26.23
2023-05-13T15:52:56.960Z,26.21
2023-05-13T15:55:25.332Z,26.19
2023-05-13T15:57:53.923Z,26.17
2023-05-13T16:00:22.660Z,26.16
2023-05-13T16:02:51.251Z,26.16
2023-05-13T16:05:20.273Z,26.16
2023-05-13T16:07:48.677Z,26.15
2023-05-13T16:10:17.016Z,26.15
2023-05-13T16:12:45.518Z,26.14
2023-05-13T16:15:13.863Z,26.14
2023-05-13T16:17:42.282Z,26.13
2023-05-13T16:20:11.818Z,26.14
2023-05-13T16:22:40.762Z,26.13
2023-05-13T16:25:11.284Z,26.12
2023-05-13T16:27:40.615Z,26.12
2023-05-13T16:30:09.439Z,26.11
2023-05-13T16:32:38.549Z,26.09
2023-05-13T16:35:07.651Z,26.09
2023-05-13T16:37:36.404Z,26.09
2023-05-13T16:40:05.864Z,26.08
2023-05-13T16:42:34.187Z,26.06
2023-05-13T16:45:02.566Z,26.06
2023-05-13T16:47:30.966Z,26.06
2023-05-13T16:49:59.462Z,26.06
2023-05-13T16:52:28.114Z,26.05
2023-05-13T16:54:58.458Z,26.06
2023-05-13T16:57:27.669Z,26.05
2023-05-13T16:59:56.528Z,26.06
2023-05-13T17:02:25.027Z,26.04
2023-05-13T17:04:53.624Z,26.04
2023-05-13T17:07:22.012Z,26.03
2023-05-13T17:09:50.404Z,26.04
2023-05-13T17:12:18.861Z,26.04
2023-05-13T17:14:47.216Z,26.04
2023-05-13T17:17:15.654Z,26.03
2023-05-13T17:19:44.123Z,26.03
2023-05-13T17:22:12.464Z,26.02
2023-05-13T17:24:41.530Z,26.01
2023-05-13T17:27:10.205Z,26.01
2023-05-13T17:29:38.590Z,26.01
2023-05-13T17:32:07.362Z,26.00
2023-05-13T17:34:35.702Z,26.00
2023-05-13T17:37:04.078Z,25.99
2023-05-13T17:39:32.517Z,25.99
2023-05-13T17:42:00.834Z,26.00
2023-05-13T17:44:29.199Z,26.01
2023-05-13T17:46:57.652Z,26.00
2023-05-13T17:49:26.005Z,26.00
2023-05-13T17:51:54.324Z,26.00
2023-05-13T17:54:22.668Z,26.01
2023-05-13T17:56:51.587Z,26.00
2023-05-13T17:59:19.943Z,25.98
2023-05-13T18:01:48.303Z,25.98
2023-05-13T18:04:17.018Z,25.98
2023-05-13T18:06:45.352Z,25.98
2023-05-13T18:09:13.675Z,25.97
2023-05-13T18:11:42.128Z,25.96
2023-05-13T18:14:10.472Z,25.96
2023-05-13T18:16:38.922Z,25.92
2023-05-13T18:19:07.782Z,25.90
2023-05-13T18:21:36.305Z,25.87
2023-05-13T18:24:04.716Z,25.84
2023-05-13T18:26:33.048Z,25.83
2023-05-13T18:29:01.565Z,25.81
2023-05-13T18:31:29.990Z,25.81
2023-05-13T18:33:58.345Z,25.77
2023-05-13T18:36:26.832Z,25.77
2023-05-13T18:38:55.391Z,25.77
2023-05-13T18:41:23.783Z,25.76
2023-05-13T18:43:52.417Z,25.75
2023-05-13T18:46:21.892Z,25.75
2023-05-13T18:48:50.421Z,25.76
2023-05-13T18:51:18.848Z,25.75
2023-05-13T18:53:47.153Z,25.76
2023-05-13T18:56:15.510Z,25.75
2023-05-13T18:58:46.699Z,25.76
2023-05-13T19:01:16.550Z,25.76
2023-05-13T19:03:45.210Z,25.76
2023-05-13T19:06:13.922Z,25.76
2023-05-13T19:08:42.750Z,25.76
2023-05-13T19:11:11.176Z,25.76
2023-05-13T19:13:46.806Z,25.75
2023-05-13T19:16:16.172Z,25.75
2023-05-13T19:18:44.615Z,25.75
2023-05-13T19:21:13.011Z,25.75
2023-05-13T19:23:41.464Z,25.76
2023-05-13T19:26:10.660Z,25.76
2023-05-13T19:28:40.059Z,25.75
2023-05-13T19:31:08.588Z,25.74
2023-05-13T19:33:40.513Z,25.73
2023-05-13T19:36:10.088Z,25.72
2023-05-13T19:38:38.601Z,25.71
2023-05-13T19:41:06.979Z,25.71
2023-05-13T19:43:35.392Z,25.70
2023-05-13T19:46:03.805Z,25.69
2023-05-13T19:48:32.379Z,25.70
2023-05-13T19:51:00.812Z,25.69
2023-05-13T19:53:29.288Z,25.69
2023-05-13T19:55:57.793Z,25.69
2023-05-13T19:58:26.424Z,25.69
2023-05-13T20:00:55.487Z,25.68
2023-05-13T20:03:23.949Z,25.67
2023-05-13T20:05:53.991Z,25.67
2023-05-13T20:08:22.690Z,25.66
2023-05-13T20:10:51.204Z,25.66
2023-05-13T20:13:20.281Z,25.66
2023-05-13T20:15:48.731Z,25.66
2023-05-13T20:18:17.384Z,25.64
2023-05-13T20:20:47.850Z,25.63
2023-05-13T20:23:16.254Z,25.61
2023-05-13T20:25:44.714Z,25.58
2023-05-13T20:28:13.100Z,25.57
2023-05-13T20:30:44.597Z,25.56
2023-05-13T20:33:14.186Z,25.56
2023-05-13T20:35:43.195Z,25.58
2023-05-13T20:38:11.895Z,25.59
2023-05-13T20:40:40.456Z,25.57
2023-05-13T20:43:08.836Z,25.58
2023-05-13T20:45:40.538Z,25.59
2023-05-13T20:48:10.086Z,25.60
2023-05-13T20:50:38.502Z,25.62
2023-05-13T20:53:07.282Z,25.63
2023-05-13T20:55:35.760Z,25.63
2023-05-13T20:58:04.130Z,25.64
2023-05-13T21:00:32.605Z,25.65
2023-05-13T21:03:01.701Z,25.65
2023-05-13T21:05:30.276Z,25.66
2023-05-13T21:07:58.700Z,25.67
2023-05-13T21:10:27.205Z,25.68
2023-05-13T21:12:55.586Z,25.68
2023-05-13T21:15:23.973Z,25.69
2023-05-13T21:17:52.533Z,25.69
2023-05-13T21:20:21.846Z,25.71
2023-05-13T21:22:50.530Z,25.72
2023-05-13T21:25:19.149Z,25.71
2023-05-13T21:27:47.538Z,25.74
2023-05-13T21:30:15.989Z,25.75
2023-05-13T21:32:44.476Z,25.75
2023-05-13T21:35:14.411Z,25.77
2023-05-13T21:37:43.181Z,25.79
2023-05-13T21:40:12.400Z,25.81
2023-05-13T21:42:40.815Z,25.81
2023-05-13T21:45:09.749Z,25.80
2023-05-13T21:47:38.305Z,25.78
2023-05-13T21:50:12.248Z,25.78
2023-05-13T21:52:40.881Z,25.78
2023-05-13T21:55:09.717Z,25.80
2023-05-13T21:57:38.131Z,25.80
2023-05-13T22:00:11.583Z,25.78
2023-05-13T22:02:40.025Z,25.81
2023-05-13T22:05:09.088Z,25.82
2023-05-13T22:07:37.521Z,25.82
2023-05-13T22:10:07.219Z,25.81
2023-05-13T22:12:35.698Z,25.78
2023-05-13T22:15:04.121Z,25.79
2023-05-13T22:17:32.597Z,25.80
2023-05-13T22:20:01.161Z,25.79
2023-05-13T22:22:29.564Z,25.81
2023-05-13T22:24:57.945Z,25.78
2023-05-13T22:27:26.452Z,25.78
2023-05-13T22:29:54.775Z,25.78
2023-05-13T22:32:23.204Z,25.77
2023-05-13T22:34:51.795Z,25.76
2023-05-13T22:37:20.163Z,25.74
2023-05-13T22:39:48.530Z,25.73
2023-05-13T22:42:16.928Z,25.72
2023-05-13T22:44:45.320Z,25.71
2023-05-13T22:47:13.699Z,25.73
2023-05-13T22:49:42.106Z,25.74
2023-05-13T22:52:10.494Z,25.74
2023-05-13T22:54:38.840Z,25.74
2023-05-13T22:57:07.240Z,25.77
2023-05-13T22:59:36.463Z,25.78
2023-05-13T23:02:05.074Z,25.78
2023-05-13T23:04:33.747Z,25.78
2023-05-13T23:07:02.932Z,25.78
2023-05-13T23:09:31.376Z,25.79
2023-05-13T23:11:59.795Z,25.77
2023-05-13T23:14:30.885Z,25.80
2023-05-13T23:16:59.227Z,25.81
2023-05-13T23:19:27.606Z,25.82
2023-05-13T23:21:55.948Z,25.82
2023-05-13T23:24:24.317Z,25.84
2023-05-13T23:26:52.709Z,25.83
2023-05-13T23:29:21.175Z,25.84
2023-05-13T23:31:49.539Z,25.83
2023-05-13T23:34:17.858Z,25.83
2023-05-13T23:36:46.246Z,25.84
2023-05-13T23:39:14.576Z,25.84
2023-05-13T23:41:42.934Z,25.84
2023-05-13T23:44:11.320Z,25.86
2023-05-13T23:46:39.743Z,25.87
2023-05-13T23:49:08.084Z,25.88
2023-05-13T23:51:36.453Z,25.94
2023-05-13T23:54:04.992Z,25.96
2023-05-13T23:56:33.308Z,25.98
2023-05-13T23:59:01.859Z,25.98
